Time;durP1;ratioP1;P1;durP2;ratioP2;P2;SDS_P1;SDS_P2;PMS_P1;PMS_P2;Temp;Humidity;BMP_temperature;BMP_pressure;BME280_temperature;BME280_humidity;BME280_pressure;Samples;Min_cycle;Max_cycle;Signal;HPM_P1;HPM_P2
2021/12/17 00:03:47;;;;;;;12.02;6.68;;;;;;;;;;21087289;28;20044;-58
2021/12/17 00:13:53;;;;;;;11.63;7.35;;;;;;;;;;21086552;28;20052;-58
2021/12/17 00:55:18;;;;;;;9.93;6.85;;;;;;;;;;20663492;28;20132;-58
2021/12/17 01:05:24;;;;;;;11.35;6.78;;;;;;;;;;20801537;28;20515;-57
2021/12/17 01:15:26;;;;;;;9.77;6.60;;;;;;;;;;21081920;28;20056;-57
2021/12/17 01:35:51;;;;;;;11.02;6.65;;;;;;;;;;21080543;28;20060;-58
2021/12/17 01:45:53;;;;;;;12.52;7.07;;;;;;;;;;21080207;28;20048;-57
2021/12/17 01:56:17;;;;;;;13.73;8.30;;;;;;;;;;21079872;28;20484;-59
2021/12/17 02:06:23;;;;;;;10.07;6.82;;;;;;;;;;21079401;28;20052;-57
2021/12/17 02:37:04;;;;;;;14.02;7.35;;;;;;;;;;21094914;28;20475;-59
2021/12/17 02:47:12;;;;;;;14.88;7.32;;;;;;;;;;21094056;28;20048;-58
2021/12/17 02:57:16;;;;;;;12.10;8.20;;;;;;;;;;21093662;28;20144;-58
2021/12/17 03:07:42;;;;;;;10.65;7.03;;;;;;;;;;21093998;28;20044;-58
2021/12/17 03:28:16;;;;;;;10.70;6.65;;;;;;;;;;21091221;28;20462;-58
2021/12/17 03:38:32;;;;;;;11.90;6.65;;;;;;;;;;21090477;28;20048;-58
2021/12/17 03:48:52;;;;;;;11.80;7.60;;;;;;;;;;21089058;28;20403;-57
2021/12/17 03:59:02;;;;;;;13.93;6.82;;;;;;;;;;21089607;28;20184;-60
2021/12/17 04:09:12;;;;;;;11.88;7.40;;;;;;;;;;21088473;28;20059;-58
2021/12/17 04:19:17;;;;;;;12.43;7.50;;;;;;;;;;21099431;28;20482;-59
2021/12/17 04:29:25;;;;;;;15.82;8.10;;;;;;;;;;21086604;28;20505;-57
2021/12/17 04:39:29;;;;;;;11.70;7.13;;;;;;;;;;21085766;28;20067;-58
2021/12/17 04:59:51;;;;;;;11.93;7.18;;;;;;;;;;21083539;28;20608;-56
2021/12/17 05:20:18;;;;;;;11.95;8.10;;;;;;;;;;21082609;28;20048;-57
2021/12/17 05:30:22;;;;;;;14.32;7.45;;;;;;;;;;21081088;28;20553;-58
2021/12/17 05:40:25;;;;;;;11.85;6.65;;;;;;;;;;21081352;28;20521;-57
2021/12/17 05:50:27;;;;;;;9.20;6.75;;;;;;;;;;21079646;28;20056;-58
2021/12/17 06:00:40;;;;;;;12.23;6.93;;;;;;;;;;21079957;28;20119;-57
2021/12/17 06:10:42;;;;;;;13.05;7.47;;;;;;;;;;21078816;28;20115;-58
2021/12/17 06:20:47;;;;;;;15.98;8.00;;;;;;;;;;21079032;28;20482;-58
2021/12/17 06:30:49;;;;;;;13.13;7.68;;;;;;;;;;21060809;28;20044;-58
2021/12/17 06:40:53;;;;;;;13.52;8.25;;;;;;;;;;21078446;28;20055;-57
2021/12/17 07:22:03;;;;;;;15.57;8.48;;;;;;;;;;21087720;28;20371;-58
2021/12/17 07:42:13;;;;;;;16.63;10.03;;;;;;;;;;21089589;28;20495;-57
2021/12/17 07:52:29;;;;;;;14.50;8.10;;;;;;;;;;21087771;28;20145;-58
2021/12/17 08:02:34;;;;;;;17.85;9.57;;;;;;;;;;21088116;28;20048;-58
2021/12/17 08:12:37;;;;;;;19.38;8.75;;;;;;;;;;21086321;28;20130;-58
2021/12/17 08:33:43;;;;;;;13.82;9.00;;;;;;;;;;20665370;28;20441;-58
2021/12/17 08:43:54;;;;;;;24.45;13.00;;;;;;;;;;20664297;28;20050;-57
2021/12/17 08:53:58;;;;;;;19.88;11.82;;;;;;;;;;20662732;28;20154;-58
2021/12/17 09:04:08;;;;;;;14.10;8.55;;;;;;;;;;20794240;28;20087;-56
2021/12/17 09:14:20;;;;;;;15.70;8.52;;;;;;;;;;21066154;28;20523;-58
2021/12/17 09:24:30;;;;;;;17.50;9.45;;;;;;;;;;21081650;28;20066;-58
2021/12/17 09:34:45;;;;;;;16.80;9.83;;;;;;;;;;21080296;28;20109;-58
2021/12/17 09:45:01;;;;;;;14.07;7.85;;;;;;;;;;21079629;28;20055;-58
2021/12/17 09:55:16;;;;;;;15.25;8.43;;;;;;;;;;21079632;28;20056;-58
2021/12/17 10:05:28;;;;;;;15.40;9.38;;;;;;;;;;21079170;28;20044;-56
2021/12/17 10:15:52;;;;;;;14.48;7.10;;;;;;;;;;21079093;28;20055;-58
2021/12/17 10:26:15;;;;;;;10.30;5.97;;;;;;;;;;21044937;28;20375;-58
2021/12/17 10:36:38;;;;;;;12.35;7.55;;;;;;;;;;21074579;28;20058;-53
2021/12/17 10:57:58;;;;;;;18.20;8.80;;;;;;;;;;20751221;28;20057;-57
2021/12/17 11:08:28;;;;;;;19.08;8.98;;;;;;;;;;20751446;28;20050;-55
2021/12/17 11:18:51;;;;;;;12.73;7.75;;;;;;;;;;20750509;28;20074;-56
2021/12/17 11:29:05;;;;;;;7.20;4.70;;;;;;;;;;20885685;28;20059;-63
2021/12/17 11:39:18;;;;;;;15.38;8.55;;;;;;;;;;21088368;28;20123;-61
2021/12/17 11:49:26;;;;;;;11.20;7.15;;;;;;;;;;21087823;28;20056;-60
2021/12/17 11:59:43;;;;;;;10.38;6.20;;;;;;;;;;21079179;28;20048;-53
2021/12/17 12:09:59;;;;;;;8.00;5.32;;;;;;;;;;21003342;28;20052;-52
2021/12/17 12:20:32;;;;;;;13.15;5.68;;;;;;;;;;21000850;28;20080;-60
2021/12/17 12:30:39;;;;;;;22.93;4.93;;;;;;;;;;21000970;28;20391;-57
2021/12/17 12:40:51;;;;;;;10.35;4.30;;;;;;;;;;21002654;28;20048;-66
2021/12/17 12:51:14;;;;;;;5.50;2.17;;;;;;;;;;21003134;28;20056;-68
2021/12/17 13:01:19;;;;;;;4.70;2.00;;;;;;;;;;20998189;28;20048;-67
2021/12/17 13:11:46;;;;;;;3.25;2.30;;;;;;;;;;20998330;28;20135;-68
2021/12/17 13:22:12;;;;;;;5.60;2.55;;;;;;;;;;20997497;28;20049;-69
2021/12/17 13:32:18;;;;;;;4.70;2.92;;;;;;;;;;20996388;28;20048;-68
2021/12/17 13:42:19;;;;;;;;;;;;;;;;;;20996114;28;20406;-68
2021/12/17 13:52:26;;;;;;;6.13;3.00;;;;;;;;;;21010482;28;19920;-69
2021/12/17 14:02:35;;;;;;;6.53;3.15;;;;;;;;;;20995164;28;20044;-68
2021/12/17 14:12:43;;;;;;;6.38;4.10;;;;;;;;;;20994207;28;20131;-68
2021/12/17 14:22:51;;;;;;;6.15;3.72;;;;;;;;;;20993837;28;20049;-68
2021/12/17 14:32:55;;;;;;;5.28;4.20;;;;;;;;;;21008936;28;20052;-68
2021/12/17 14:43:00;;;;;;;7.63;4.37;;;;;;;;;;21010980;28;20350;-67
2021/12/17 15:13:29;;;;;;;9.00;6.10;;;;;;;;;;21007909;28;20459;-69
2021/12/17 15:23:35;;;;;;;9.93;6.13;;;;;;;;;;21007091;28;20498;-67
2021/12/17 15:33:38;;;;;;;6.33;5.40;;;;;;;;;;21006764;28;20473;-67
2021/12/17 15:43:40;;;;;;;11.15;5.72;;;;;;;;;;21005662;28;20044;-69
2021/12/17 15:53:44;;;;;;;6.78;4.07;;;;;;;;;;21013715;28;20053;-68
2021/12/17 16:03:53;;;;;;;9.25;5.75;;;;;;;;;;21004526;28;20086;-67
2021/12/17 16:24:21;;;;;;;12.45;7.15;;;;;;;;;;21001583;28;20479;-68
2021/12/17 16:34:27;;;;;;;11.13;7.03;;;;;;;;;;21002072;28;20048;-69
2021/12/17 16:44:43;;;;;;;14.43;9.10;;;;;;;;;;21001705;28;20090;-63
2021/12/17 16:54:47;;;;;;;10.73;6.88;;;;;;;;;;20998322;28;20056;-61
2021/12/17 17:04:49;;;;;;;9.90;6.95;;;;;;;;;;20998788;28;20049;-66
2021/12/17 17:14:51;;;;;;;34.67;20.42;;;;;;;;;;20996850;28;20410;-58
2021/12/17 17:24:54;;;;;;;26.25;14.88;;;;;;;;;;20996875;28;20587;-60
2021/12/17 17:34:59;;;;;;;14.27;9.07;;;;;;;;;;20995268;28;20056;-63
2021/12/17 17:45:10;;;;;;;13.15;8.68;;;;;;;;;;20994915;28;20045;-57
2021/12/17 17:55:13;;;;;;;15.65;11.10;;;;;;;;;;20995161;28;20052;-62
2021/12/17 18:05:21;;;;;;;17.58;10.70;;;;;;;;;;20994549;28;20045;-62
2021/12/17 18:15:27;;;;;;;20.58;11.70;;;;;;;;;;20994049;28;20139;-62
2021/12/17 18:25:29;;;;;;;13.65;7.45;;;;;;;;;;20994531;28;20040;-62
2021/12/17 18:35:34;;;;;;;19.40;9.83;;;;;;;;;;20993782;28;20570;-60
2021/12/17 18:45:39;;;;;;;13.18;9.60;;;;;;;;;;20993082;28;20048;-58
2021/12/17 18:55:41;;;;;;;16.80;11.23;;;;;;;;;;20992023;28;20093;-63
2021/12/17 19:05:44;;;;;;;14.10;6.97;;;;;;;;;;20992594;28;20044;-73
2021/12/17 19:15:46;;;;;;;10.57;7.03;;;;;;;;;;21001611;28;20106;-60
2021/12/17 19:25:47;;;;;;;13.63;7.22;;;;;;;;;;21006482;28;20049;-67
2021/12/17 19:35:52;;;;;;;12.57;6.03;;;;;;;;;;21005603;28;20098;-72
2021/12/17 19:45:59;;;;;;;9.45;6.43;;;;;;;;;;21005292;28;20560;-63
2021/12/17 19:56:02;;;;;;;14.00;8.00;;;;;;;;;;21004275;28;20132;-57
2021/12/17 20:06:09;;;;;;;12.95;7.20;;;;;;;;;;21003932;28;20048;-59
2021/12/17 20:16:12;;;;;;;14.30;9.07;;;;;;;;;;21002218;28;20095;-57
2021/12/17 20:26:17;;;;;;;14.45;8.95;;;;;;;;;;21000625;28;20132;-59
2021/12/17 20:36:19;;;;;;;31.67;16.70;;;;;;;;;;21001038;28;20052;-56
2021/12/17 20:46:21;;;;;;;19.55;12.20;;;;;;;;;;21000140;28;20135;-58
2021/12/17 20:56:26;;;;;;;14.37;8.53;;;;;;;;;;20998292;28;20064;-58
2021/12/17 21:06:30;;;;;;;23.98;16.08;;;;;;;;;;20997424;28;20045;-58
2021/12/17 21:16:33;;;;;;;20.42;13.40;;;;;;;;;;20996750;28;20481;-58
2021/12/17 21:26:39;;;;;;;40.10;23.67;;;;;;;;;;20996792;28;20190;-58
2021/12/17 21:36:42;;;;;;;17.92;9.63;;;;;;;;;;20994710;28;20109;-58
2021/12/17 21:46:44;;;;;;;18.70;10.48;;;;;;;;;;20995327;28;20484;-56
2021/12/17 21:56:47;;;;;;;16.92;10.88;;;;;;;;;;20995582;28;20067;-59
2021/12/17 22:06:56;;;;;;;25.98;14.55;;;;;;;;;;20994395;28;20124;-58
2021/12/17 22:16:59;;;;;;;22.70;12.77;;;;;;;;;;20992332;28;20052;-59
2021/12/17 22:27:02;;;;;;;11.57;6.90;;;;;;;;;;20993975;28;20076;-58
2021/12/17 22:37:05;;;;;;;13.48;7.10;;;;;;;;;;20993829;28;20051;-58
2021/12/17 22:47:07;;;;;;;10.48;6.68;;;;;;;;;;20997201;28;20098;-59
2021/12/17 22:57:09;;;;;;;9.90;6.85;;;;;;;;;;21007891;28;20055;-57
2021/12/17 23:07:14;;;;;;;7.95;5.45;;;;;;;;;;21006665;28;20080;-56
2021/12/17 23:17:18;;;;;;;12.35;8.00;;;;;;;;;;21006632;28;20059;-56
2021/12/17 23:27:20;;;;;;;10.07;5.72;;;;;;;;;;21005743;28;20049;-55
2021/12/17 23:37:22;;;;;;;10.27;6.00;;;;;;;;;;21004446;28;20483;-57
2021/12/17 23:47:29;;;;;;;9.48;6.13;;;;;;;;;;21003778;28;20048;-58
2021/12/17 23:57:31;;;;;;;10.40;5.85;;;;;;;;;;21002593;28;20052;-57
